Time;durP1;ratioP1;P1;durP2;ratioP2;P2;SDS_P1;SDS_P2;PMS_P1;PMS_P2;Temp;Humidity;BMP_temperature;BMP_pressure;BME280_temperature;BME280_humidity;BME280_pressure;Samples;Min_cycle;Max_cycle;Signal;HPM_P1;HPM_P2
2022/07/06 00:01:38;;;;;;;5.85;1.20;;;;;;;14.46;100.00;102587.81;5105938;28;20051;-71
2022/07/06 00:04:04;;;;;;;5.85;0.80;;;;;;;14.49;100.00;102587.88;5100422;28;20038;-72
2022/07/06 00:06:30;;;;;;;2.92;0.95;;;;;;;14.54;100.00;102584.47;5093144;28;20050;-71
2022/07/06 00:08:56;;;;;;;2.00;0.68;;;;;;;14.62;100.00;102578.53;5107222;28;20099;-71
2022/07/06 00:11:21;;;;;;;4.35;1.17;;;;;;;14.54;100.00;102579.16;5094735;28;20122;-72
2022/07/06 00:13:47;;;;;;;2.17;0.75;;;;;;;14.43;100.00;102579.78;5110857;28;20031;-72
2022/07/06 00:16:13;;;;;;;4.25;0.80;;;;;;;14.34;100.00;102588.34;5099818;28;20035;-72
2022/07/06 00:18:38;;;;;;;2.20;1.17;;;;;;;14.28;100.00;102587.25;5111777;28;20098;-73
2022/07/06 00:21:03;;;;;;;5.35;1.00;;;;;;;14.23;100.00;102588.88;5105681;28;20537;-71
2022/07/06 00:23:29;;;;;;;3.03;1.00;;;;;;;14.14;100.00;102587.75;5094105;28;20107;-71
2022/07/06 00:25:54;;;;;;;4.22;0.90;;;;;;;14.16;100.00;102579.84;5093067;28;20028;-71
2022/07/06 00:28:19;;;;;;;3.53;1.00;;;;;;;14.08;100.00;102569.06;5104851;28;20080;-71
2022/07/06 00:30:45;;;;;;;5.18;1.23;;;;;;;14.09;100.00;102572.59;5104567;28;20380;-71
2022/07/06 00:33:10;;;;;;;2.92;0.80;;;;;;;14.04;100.00;102569.81;5080068;28;20066;-71
2022/07/06 00:35:35;;;;;;;3.58;1.00;;;;;;;13.97;100.00;102573.09;5112636;28;20035;-71
2022/07/06 00:38:01;;;;;;;5.95;1.02;;;;;;;13.94;100.00;102579.19;5115258;28;20504;-72
2022/07/06 00:40:26;;;;;;;7.05;0.77;;;;;;;14.00;100.00;102570.56;5104736;28;20024;-71
2022/07/06 00:42:52;;;;;;;1.88;0.70;;;;;;;14.07;100.00;102572.53;5116967;28;20098;-72
2022/07/06 00:45:18;;;;;;;2.15;0.73;;;;;;;14.13;100.00;102572.75;5079423;28;20032;-72
2022/07/06 00:47:45;;;;;;;3.05;1.05;;;;;;;14.14;100.00;102573.63;5096971;28;20032;-71
2022/07/06 00:50:15;;;;;;;3.75;0.88;;;;;;;14.23;100.00;102575.63;5109772;28;20034;-72
2022/07/06 00:52:54;;;;;;;2.72;0.80;;;;;;;14.19;100.00;102574.66;5114150;28;20031;-71
2022/07/06 00:55:24;;;;;;;2.88;0.90;;;;;;;14.22;100.00;102579.16;5104351;28;20035;-72
2022/07/06 00:57:50;;;;;;;3.58;0.60;;;;;;;14.25;100.00;102576.59;5103968;28;20113;-72
2022/07/06 01:00:19;;;;;;;4.65;0.80;;;;;;;14.25;100.00;102573.94;5095291;28;20038;-71
2022/07/06 01:02:45;;;;;;;0.93;0.70;;;;;;;14.28;100.00;102579.31;5079190;28;20502;-71
2022/07/06 01:05:12;;;;;;;2.25;0.68;;;;;;;14.26;100.00;102575.75;5114984;28;20102;-71
2022/07/06 01:07:39;;;;;;;2.55;0.90;;;;;;;14.27;100.00;102573.13;5104997;28;20491;-72
2022/07/06 01:10:06;;;;;;;2.28;0.82;;;;;;;14.29;100.00;102571.41;5115953;28;20076;-72
2022/07/06 01:12:34;;;;;;;2.33;0.63;;;;;;;14.27;100.00;102574.88;5103254;28;20038;-72
2022/07/06 01:15:00;;;;;;;1.20;0.60;;;;;;;14.16;100.00;102577.19;5100087;28;20032;-73
2022/07/06 01:17:26;;;;;;;2.42;0.80;;;;;;;14.23;100.00;102576.56;5096414;28;20036;-72
2022/07/06 01:19:51;;;;;;;5.30;0.93;;;;;;;14.18;100.00;102570.22;5113372;28;20391;-72
2022/07/06 01:22:16;;;;;;;3.33;0.80;;;;;;;14.15;100.00;102564.84;5103517;28;20375;-72
2022/07/06 01:24:42;;;;;;;2.80;0.90;;;;;;;14.16;100.00;102562.22;5112334;28;20027;-71
2022/07/06 01:27:07;;;;;;;3.58;0.85;;;;;;;14.18;100.00;102558.75;5109394;28;20118;-72
2022/07/06 01:29:33;;;;;;;3.55;0.68;;;;;;;14.19;100.00;102565.81;5108414;28;20031;-72
2022/07/06 01:31:59;;;;;;;4.85;0.70;;;;;;;14.18;100.00;102566.69;5105436;28;20034;-71
2022/07/06 01:34:24;;;;;;;1.85;0.70;;;;;;;14.20;100.00;102564.97;5116183;28;20035;-71
2022/07/06 01:36:51;;;;;;;9.07;1.55;;;;;;;14.23;100.00;102562.41;5103144;28;20023;-71
2022/07/06 01:39:17;;;;;;;1.17;0.60;;;;;;;14.21;100.00;102569.41;5102918;28;20034;-71
2022/07/06 01:41:42;;;;;;;2.72;0.80;;;;;;;14.22;100.00;102566.81;5107917;28;20095;-72
2022/07/06 01:44:07;;;;;;;6.50;0.85;;;;;;;14.21;100.00;102569.41;5111394;28;20031;-71
2022/07/06 01:46:33;;;;;;;4.15;0.77;;;;;;;14.08;100.00;102563.75;5108469;28;20103;-71
2022/07/06 01:48:58;;;;;;;2.53;0.77;;;;;;;14.13;100.00;102567.44;5106173;28;20383;-70
2022/07/06 01:51:24;;;;;;;2.35;0.70;;;;;;;14.04;100.00;102564.53;5114970;28;20047;-71
2022/07/06 01:53:51;;;;;;;2.53;0.60;;;;;;;14.02;100.00;102560.91;5115156;28;20066;-71
2022/07/06 01:56:17;;;;;;;4.43;0.75;;;;;;;13.97;100.00;102558.16;5115077;28;20031;-71
2022/07/06 01:58:43;;;;;;;4.82;0.70;;;;;;;13.98;100.00;102561.69;5114395;28;20387;-71
2022/07/06 02:01:14;;;;;;;4.35;0.70;;;;;;;13.88;100.00;102559.63;5096448;28;20031;-72
2022/07/06 02:03:41;;;;;;;1.95;0.70;;;;;;;13.81;100.00;102554.13;5107800;28;20065;-72
2022/07/06 02:06:06;;;;;;;4.03;0.98;;;;;;;13.78;100.00;102563.72;5099744;28;20038;-72
2022/07/06 02:08:33;;;;;;;1.13;0.60;;;;;;;13.71;100.00;102556.44;5078065;28;20027;-72
2022/07/06 02:10:59;;;;;;;5.10;0.70;;;;;;;13.69;100.00;102558.13;5101777;28;20034;-72
2022/07/06 02:13:24;;;;;;;1.15;0.50;;;;;;;13.63;100.00;102554.47;5104333;28;20027;-71
2022/07/06 02:15:50;;;;;;;3.38;0.90;;;;;;;13.66;100.00;102554.56;5108581;28;20024;-71
2022/07/06 02:18:15;;;;;;;1.23;0.73;;;;;;;13.67;100.00;102552.78;5086474;28;22031;-71
2022/07/06 02:20:41;;;;;;;5.57;0.60;;;;;;;13.63;100.00;102558.84;5095501;28;20032;-71
2022/07/06 02:23:06;;;;;;;1.30;0.73;;;;;;;13.52;100.00;102560.25;5110861;28;20028;-72
2022/07/06 02:25:33;;;;;;;6.88;0.82;;;;;;;13.47;100.00;102563.66;5090380;28;20028;-72
2022/07/06 02:27:59;;;;;;;1.67;0.98;;;;;;;13.46;100.00;102558.31;5094808;28;20023;-72
2022/07/06 02:30:24;;;;;;;4.00;0.90;;;;;;;13.47;100.00;102555.72;5099724;28;20106;-71
2022/07/06 02:32:50;;;;;;;3.70;0.70;;;;;;;13.43;100.00;102555.53;5109195;28;20035;-72
2022/07/06 02:35:15;;;;;;;1.38;0.90;;;;;;;13.41;100.00;102560.78;5097245;28;20111;-72
2022/07/06 02:37:40;;;;;;;1.02;0.60;;;;;;;13.48;100.00;102552.22;5114210;28;20031;-71
2022/07/06 02:40:06;;;;;;;2.13;0.52;;;;;;;13.46;100.00;102556.56;5094656;28;20030;-72
2022/07/06 02:42:32;;;;;;;2.42;0.65;;;;;;;13.45;100.00;102560.03;5095422;28;20433;-71
2022/07/06 02:44:57;;;;;;;2.95;0.68;;;;;;;13.40;100.00;102560.75;5076326;28;20076;-72
2022/07/06 02:47:22;;;;;;;1.77;0.63;;;;;;;13.30;100.00;102562.16;5085511;28;20068;-71
2022/07/06 02:49:48;;;;;;;3.00;0.82;;;;;;;13.35;100.00;102557.00;5104293;28;20505;-71
2022/07/06 02:52:13;;;;;;;6.40;0.70;;;;;;;13.33;100.00;102555.25;5108316;28;20043;-71
2022/07/06 02:54:38;;;;;;;2.08;0.68;;;;;;;13.35;100.00;102563.22;5094702;28;20486;-72
2022/07/06 02:57:04;;;;;;;0.90;0.57;;;;;;;13.39;100.00;102565.16;5098544;28;20029;-71
2022/07/06 02:59:29;;;;;;;1.75;0.88;;;;;;;13.46;100.00;102567.13;5113037;28;20031;-71
2022/07/06 03:01:54;;;;;;;2.72;1.00;;;;;;;13.46;100.00;102559.19;5103402;28;20020;-71
2022/07/06 03:04:20;;;;;;;7.00;1.02;;;;;;;13.52;100.00;102557.59;5108691;28;20471;-71
2022/07/06 03:06:45;;;;;;;2.03;0.70;;;;;;;13.62;100.00;102563.25;5101658;28;20028;-71
2022/07/06 03:09:11;;;;;;;1.20;0.80;;;;;;;13.69;100.00;102564.34;5110348;28;20015;-71
2022/07/06 03:11:36;;;;;;;4.88;0.77;;;;;;;13.72;100.00;102563.53;5101003;28;20363;-72
2022/07/06 03:14:03;;;;;;;2.67;0.77;;;;;;;13.75;100.00;102568.91;5099369;28;20413;-72
2022/07/06 03:16:29;;;;;;;3.50;0.75;;;;;;;13.81;100.00;102575.28;5092779;28;20383;-71
2022/07/06 03:18:54;;;;;;;3.65;0.70;;;;;;;13.89;100.00;102577.28;5096150;28;20033;-71
2022/07/06 03:21:20;;;;;;;0.80;0.75;;;;;;;13.89;100.00;102571.97;5104554;28;20107;-71
2022/07/06 03:23:45;;;;;;;2.65;0.70;;;;;;;13.91;100.00;102567.66;5108559;28;20023;-71
2022/07/06 03:26:10;;;;;;;2.13;0.82;;;;;;;13.94;100.00;102565.09;5108724;28;20024;-72
2022/07/06 03:28:35;;;;;;;1.67;0.73;;;;;;;13.93;100.00;102556.25;5109259;28;20024;-73
2022/07/06 03:31:01;;;;;;;3.80;0.80;;;;;;;13.91;100.00;102551.78;5113209;28;20106;-72
2022/07/06 03:33:26;;;;;;;1.30;0.73;;;;;;;13.89;100.00;102556.09;5078732;28;20030;-71
2022/07/06 03:35:51;;;;;;;1.90;0.60;;;;;;;13.89;100.00;102561.38;5093150;28;20028;-72
2022/07/06 03:38:17;;;;;;;1.98;0.65;;;;;;;13.84;100.00;102563.91;5109739;28;20095;-72
2022/07/06 03:40:42;;;;;;;2.85;0.70;;;;;;;13.83;100.00;102564.75;5101008;28;20097;-72
2022/07/06 03:43:07;;;;;;;2.30;0.70;;;;;;;13.90;100.00;102563.19;5099648;28;20531;-71
2022/07/06 03:45:33;;;;;;;0.95;0.77;;;;;;;13.93;100.00;102561.56;5083890;28;20028;-71
2022/07/06 03:47:58;;;;;;;3.08;0.70;;;;;;;13.99;100.00;102555.53;5108579;28;20028;-71
2022/07/06 03:50:23;;;;;;;1.13;0.70;;;;;;;14.07;100.00;102553.13;5103125;28;20186;-71
2022/07/06 03:52:49;;;;;;;2.55;0.60;;;;;;;14.10;100.00;102556.75;5103972;28;20075;-72
2022/07/06 03:55:14;;;;;;;2.55;1.02;;;;;;;14.19;100.00;102549.91;5102271;28;20060;-71
2022/07/06 03:57:40;;;;;;;1.20;0.55;;;;;;;14.24;100.00;102543.00;5111195;28;20030;-71
2022/07/06 04:00:07;;;;;;;2.33;0.82;;;;;;;14.29;100.00;102544.06;5076216;28;20020;-71
2022/07/06 04:02:32;;;;;;;0.80;0.57;;;;;;;14.36;100.00;102550.41;5100040;28;20023;-73
2022/07/06 04:04:58;;;;;;;3.13;0.73;;;;;;;14.39;100.00;102551.41;5106874;28;20027;-71
2022/07/06 04:07:23;;;;;;;2.60;0.70;;;;;;;14.44;100.00;102557.72;5108924;28;20429;-71
2022/07/06 04:09:48;;;;;;;3.25;0.60;;;;;;;14.48;100.00;102551.66;5103458;28;20032;-71
2022/07/06 04:12:14;;;;;;;2.13;0.70;;;;;;;14.52;100.00;102549.09;5095747;28;20063;-71
2022/07/06 04:14:39;;;;;;;1.10;0.70;;;;;;;14.60;100.00;102550.22;5081799;28;20051;-71
2022/07/06 04:17:51;;;;;;;1.02;0.70;;;;;;;14.61;100.00;102554.63;5089596;28;20076;-71
2022/07/06 04:19:50;;;;;;;1.80;0.60;;;;;;;14.65;100.00;102543.31;5110040;28;20032;-70
2022/07/06 04:22:15;;;;;;;1.30;0.80;;;;;;;14.66;100.00;102555.69;5099872;28;20372;-71
2022/07/06 04:24:41;;;;;;;1.48;0.77;;;;;;;14.72;100.00;102550.56;5113346;28;20020;-71
2022/07/06 04:27:06;;;;;;;3.38;0.80;;;;;;;14.74;100.00;102546.19;5112908;28;20026;-71
2022/07/06 04:29:31;;;;;;;1.83;0.68;;;;;;;14.76;100.00;102544.50;5100463;28;20028;-72
2022/07/06 04:31:57;;;;;;;1.83;0.95;;;;;;;14.78;100.00;102548.06;5080406;28;20051;-71
2022/07/06 04:34:22;;;;;;;1.35;0.68;;;;;;;14.81;100.00;102548.19;5111884;28;20059;-71
2022/07/06 04:36:47;;;;;;;2.00;0.90;;;;;;;14.82;100.00;102543.75;5095665;28;20471;-72
2022/07/06 04:39:12;;;;;;;1.50;0.60;;;;;;;14.81;100.00;102548.19;5077443;28;20040;-72
2022/07/06 04:41:38;;;;;;;2.92;0.70;;;;;;;14.84;100.00;102547.38;5092828;28;20024;-72
2022/07/06 04:44:03;;;;;;;1.88;0.63;;;;;;;14.80;100.00;102548.13;5105484;28;20031;-72
2022/07/06 04:46:29;;;;;;;0.98;0.60;;;;;;;14.81;100.00;102555.22;5094758;28;20086;-71
2022/07/06 04:48:54;;;;;;;1.98;0.68;;;;;;;14.80;100.00;102561.38;5105410;28;20047;-71
2022/07/06 04:51:19;;;;;;;2.35;0.70;;;;;;;14.73;100.00;102564.72;5107709;28;20044;-71
2022/07/06 04:53:45;;;;;;;6.43;0.70;;;;;;;14.73;100.00;102562.06;5094207;28;20073;-71
2022/07/06 04:56:11;;;;;;;1.80;0.70;;;;;;;14.73;100.00;102552.38;5089285;28;20382;-71
2022/07/06 04:58:36;;;;;;;1.00;0.52;;;;;;;14.72;100.00;102569.13;5100852;28;20036;-70
2022/07/06 05:01:02;;;;;;;1.23;0.52;;;;;;;14.71;100.00;102562.03;5097807;28;20031;-71
2022/07/06 05:03:27;;;;;;;3.28;0.80;;;;;;;14.74;100.00;102562.09;5111102;28;20073;-70
2022/07/06 05:05:53;;;;;;;0.85;0.70;;;;;;;14.74;100.00;102570.03;5100495;28;20094;-70
2022/07/06 05:08:18;;;;;;;1.73;0.80;;;;;;;14.72;100.00;102563.81;5099484;28;20081;-71
2022/07/06 05:10:43;;;;;;;2.22;0.63;;;;;;;14.73;100.00;102565.63;5092686;28;20028;-71
2022/07/06 05:13:09;;;;;;;4.22;0.70;;;;;;;14.77;100.00;102564.84;5102229;28;20039;-71
2022/07/06 05:15:34;;;;;;;1.50;0.70;;;;;;;14.80;100.00;102572.00;5108207;28;20032;-67
2022/07/06 05:18:00;;;;;;;1.00;0.70;;;;;;;14.80;100.00;102572.88;5103214;28;20076;-70
2022/07/06 05:20:25;;;;;;;1.25;0.52;;;;;;;14.82;100.00;102576.44;5110739;28;20364;-71
2022/07/06 05:22:51;;;;;;;1.83;0.50;;;;;;;14.86;100.00;102565.94;5102114;28;20044;-71
2022/07/06 05:25:16;;;;;;;2.25;0.60;;;;;;;14.93;100.00;102578.50;5114714;28;20023;-71
2022/07/06 05:27:41;;;;;;;2.47;0.60;;;;;;;14.93;100.00;102583.81;5110408;28;20026;-72
2022/07/06 05:30:07;;;;;;;1.30;0.70;;;;;;;14.96;100.00;102584.78;5107036;28;20032;-70
2022/07/06 05:32:32;;;;;;;1.77;0.65;;;;;;;15.01;100.00;102585.78;5101601;28;20362;-71
2022/07/06 05:34:58;;;;;;;2.53;0.82;;;;;;;15.06;100.00;102583.28;5104038;28;20030;-70
2022/07/06 05:37:23;;;;;;;0.98;0.63;;;;;;;15.13;100.00;102587.88;5105897;28;20031;-70
2022/07/06 05:39:50;;;;;;;0.93;0.40;;;;;;;15.20;100.00;102588.03;5107084;28;20043;-69
2022/07/06 05:42:15;;;;;;;1.95;0.38;;;;;;;15.22;100.00;102581.00;5104704;28;20075;-71
2022/07/06 05:44:41;;;;;;;1.60;0.43;;;;;;;15.27;100.00;102584.66;5106979;28;20023;-71
2022/07/06 05:52:34;;;;;;;3.05;0.80;;;;;;;15.41;100.00;102577.97;5101754;28;20107;-71
2022/07/06 05:55:00;;;;;;;7.00;0.70;;;;;;;15.45;100.00;102579.84;5100447;28;20055;-72
2022/07/06 05:57:26;;;;;;;1.77;0.63;;;;;;;15.50;100.00;102578.19;5104016;28;20028;-69
2022/07/06 05:59:51;;;;;;;4.20;0.88;;;;;;;15.55;100.00;102582.72;5099272;28;20052;-70
2022/07/06 06:02:17;;;;;;;0.98;0.50;;;;;;;15.62;100.00;102584.63;5110841;28;20027;-71
2022/07/06 06:04:42;;;;;;;1.83;0.80;;;;;;;15.67;100.00;102585.66;5104483;28;20020;-70
2022/07/06 06:07:07;;;;;;;2.38;0.68;;;;;;;15.73;100.00;102591.09;5102351;28;20107;-69
2022/07/06 06:09:33;;;;;;;2.95;0.60;;;;;;;15.81;100.00;102591.31;5077508;28;20055;-70
2022/07/06 06:11:58;;;;;;;2.63;0.60;;;;;;;15.88;100.00;102584.38;5102446;28;20028;-71
2022/07/06 06:14:23;;;;;;;1.70;0.40;;;;;;;15.94;100.00;102577.44;5095807;28;20024;-69
2022/07/06 06:16:48;;;;;;;1.05;0.65;;;;;;;16.01;100.00;102586.44;5105901;28;20061;-70
2022/07/06 06:19:14;;;;;;;2.33;0.70;;;;;;;16.02;100.00;102589.13;5104952;28;20050;-70
2022/07/06 06:21:39;;;;;;;2.15;0.70;;;;;;;16.09;100.00;102592.81;5108966;28;20016;-70
2022/07/06 06:24:05;;;;;;;1.40;0.65;;;;;;;16.13;100.00;102589.38;5110684;28;20031;-71
2022/07/06 06:26:30;;;;;;;3.58;0.70;;;;;;;16.16;100.00;102592.09;5104266;28;20024;-73
2022/07/06 06:28:55;;;;;;;2.50;0.93;;;;;;;16.25;100.00;102590.47;5104879;28;20026;-72
2022/07/06 06:31:21;;;;;;;3.47;0.77;;;;;;;16.37;100.00;102600.47;5110819;28;20027;-72
2022/07/06 06:33:46;;;;;;;2.22;0.55;;;;;;;16.40;100.00;102589.91;5114948;28;20058;-71
2022/07/06 06:36:12;;;;;;;1.85;0.50;;;;;;;16.47;100.00;102595.38;5114469;28;20455;-71
2022/07/06 06:38:37;;;;;;;2.72;0.52;;;;;;;16.45;100.00;102599.75;5107179;28;20522;-72
2022/07/06 06:41:03;;;;;;;2.92;0.68;;;;;;;16.50;100.00;102600.75;5114751;28;20078;-72
2022/07/06 06:43:28;;;;;;;1.80;0.38;;;;;;;16.60;100.00;102600.94;5114521;28;20098;-72
2022/07/06 06:45:53;;;;;;;1.35;0.60;;;;;;;16.68;100.00;102592.28;5099921;28;20028;-71
2022/07/06 06:48:19;;;;;;;1.13;0.57;;;;;;;16.79;100.00;102597.78;5113154;28;20020;-71
2022/07/06 06:50:45;;;;;;;3.53;0.60;;;;;;;16.84;100.00;102596.09;5113818;28;20130;-71
2022/07/06 06:53:10;;;;;;;2.00;0.63;;;;;;;16.93;100.00;102602.47;5103132;28;20164;-71
2022/07/06 06:55:36;;;;;;;2.35;0.77;;;;;;;16.95;99.58;102595.44;5109853;28;20171;-71
2022/07/06 06:58:01;;;;;;;4.32;0.50;;;;;;;17.01;100.00;102595.53;5111512;28;20066;-71
2022/07/06 07:00:26;;;;;;;5.15;0.70;;;;;;;17.01;97.94;102601.75;5113871;28;20027;-70
2022/07/06 07:02:52;;;;;;;1.05;0.28;;;;;;;17.02;97.04;102592.00;5112847;28;20024;-72
2022/07/06 07:05:17;;;;;;;1.90;0.60;;;;;;;16.99;96.19;102591.97;5100349;28;20019;-71
2022/07/06 07:07:43;;;;;;;3.17;0.40;;;;;;;17.13;97.05;102600.19;5098399;28;20492;-72
2022/07/06 07:10:08;;;;;;;1.98;0.70;;;;;;;17.17;95.72;102592.31;5093751;28;20016;-72
2022/07/06 07:12:34;;;;;;;5.75;1.55;;;;;;;17.11;93.78;102592.19;5109614;28;20038;-71
2022/07/06 07:15:00;;;;;;;1.42;0.40;;;;;;;17.18;94.31;102599.38;5099575;28;20024;-72
2022/07/06 07:17:25;;;;;;;0.25;0.20;;;;;;;17.17;87.89;102599.38;5111105;28;20028;-72
2022/07/06 07:19:51;;;;;;;1.05;0.32;;;;;;;17.24;90.45;102595.97;5111429;28;20047;-72
2022/07/06 07:22:16;;;;;;;2.75;0.63;;;;;;;17.32;93.39;102599.66;5094649;28;20024;-72
2022/07/06 07:24:41;;;;;;;3.30;0.47;;;;;;;17.31;95.49;102604.94;5093885;28;20016;-72
2022/07/06 07:27:07;;;;;;;0.93;0.40;;;;;;;17.42;96.93;102592.69;5111998;28;20024;-71
2022/07/06 07:29:32;;;;;;;0.75;0.50;;;;;;;17.48;89.41;102592.78;5101369;28;20032;-71
2022/07/06 07:31:58;;;;;;;0.45;0.45;;;;;;;17.51;87.26;102597.25;5111397;28;20035;-72
2022/07/06 07:34:23;;;;;;;1.48;0.40;;;;;;;17.60;87.86;102596.53;5113348;28;20024;-71
2022/07/06 07:36:48;;;;;;;3.72;0.50;;;;;;;17.66;84.54;102593.94;5087075;28;20012;-72
2022/07/06 07:39:14;;;;;;;1.45;0.40;;;;;;;17.77;85.25;102592.34;5105466;28;20046;-70
2022/07/06 07:41:39;;;;;;;1.38;0.40;;;;;;;17.93;86.73;102600.59;5112601;28;20024;-70
2022/07/06 07:44:04;;;;;;;1.65;0.63;;;;;;;18.02;85.26;102587.41;5106359;28;20111;-72
2022/07/06 07:46:30;;;;;;;2.17;0.40;;;;;;;18.03;81.76;102590.09;5110795;28;20439;-71
2022/07/06 07:48:55;;;;;;;1.98;0.30;;;;;;;18.04;80.73;102585.63;5112021;28;20072;-70
2022/07/06 07:51:21;;;;;;;0.30;0.30;;;;;;;18.02;82.65;102593.63;5112915;28;20089;-71
2022/07/06 07:53:46;;;;;;;0.68;0.40;;;;;;;18.08;84.21;102587.50;5079732;28;20056;-71
2022/07/06 07:56:12;;;;;;;1.10;0.50;;;;;;;18.13;84.45;102583.09;5095088;28;20383;-71
2022/07/06 07:58:37;;;;;;;1.60;0.43;;;;;;;18.12;80.79;102580.41;5105241;28;20026;-72
2022/07/06 08:01:04;;;;;;;0.95;0.40;;;;;;;18.19;81.41;102572.53;5095552;28;20030;-72
2022/07/06 08:03:29;;;;;;;2.20;0.50;;;;;;;18.32;78.73;102580.69;5111360;28;20024;-73
2022/07/06 08:05:55;;;;;;;0.85;0.68;;;;;;;18.45;76.59;102571.97;5093275;28;20157;-73
2022/07/06 08:08:20;;;;;;;0.68;0.20;;;;;;;18.51;76.16;102568.47;5097832;28;20048;-72
2022/07/06 08:10:45;;;;;;;0.85;0.30;;;;;;;18.52;71.84;102564.94;5098611;28;20475;-73
2022/07/06 08:13:11;;;;;;;0.65;0.30;;;;;;;18.64;72.79;102573.06;5097644;28;20107;-72
2022/07/06 08:15:37;;;;;;;0.32;0.30;;;;;;;18.71;73.46;102577.56;5108164;28;20540;-73
2022/07/06 08:18:03;;;;;;;0.98;0.30;;;;;;;18.86;75.74;102576.81;5105429;28;20039;-73
2022/07/06 08:20:29;;;;;;;1.75;0.32;;;;;;;18.95;70.23;102575.16;5100559;28;20475;-73
2022/07/06 08:22:55;;;;;;;1.17;0.40;;;;;;;18.95;78.33;102569.81;5103709;28;20016;-72
2022/07/06 08:25:20;;;;;;;1.75;0.40;;;;;;;19.04;77.78;102577.91;5100430;28;20034;-72
2022/07/06 08:27:45;;;;;;;0.47;0.30;;;;;;;19.24;77.90;102577.22;5111280;28;20016;-72
2022/07/06 08:30:11;;;;;;;1.10;0.50;;;;;;;19.35;74.49;102575.50;5112479;28;20482;-72
2022/07/06 08:32:38;;;;;;;1.33;0.20;;;;;;;19.24;69.80;102571.88;5107815;28;20034;-71
2022/07/06 08:35:04;;;;;;;1.10;0.40;;;;;;;19.34;73.15;102579.06;5095751;28;20341;-72
2022/07/06 08:37:30;;;;;;;1.85;0.30;;;;;;;19.38;75.23;102571.09;5098194;28;20055;-71
2022/07/06 08:39:55;;;;;;;2.42;0.50;;;;;;;19.41;69.83;102567.56;5097006;28;20060;-72
2022/07/06 08:42:21;;;;;;;1.50;0.30;;;;;;;19.36;65.20;102571.97;5117598;28;20378;-72
2022/07/06 08:44:48;;;;;;;2.83;0.55;;;;;;;19.14;64.46;102565.53;5105082;28;20015;-72
2022/07/06 08:47:13;;;;;;;1.25;0.28;;;;;;;19.14;65.31;102565.53;5107474;28;20036;-72
2022/07/06 08:49:39;;;;;;;4.40;0.60;;;;;;;19.11;66.92;102569.06;5113579;28;20494;-72
2022/07/06 08:52:05;;;;;;;0.88;0.30;;;;;;;18.95;66.04;102567.16;5100598;27;20051;-72
2022/07/06 08:54:31;;;;;;;0.40;0.32;;;;;;;18.94;63.87;102568.06;5107745;28;20081;-72
2022/07/06 08:56:58;;;;;;;0.93;0.30;;;;;;;18.94;64.40;102568.06;5104938;28;20024;-73
2022/07/06 08:59:24;;;;;;;1.30;0.80;;;;;;;18.85;68.31;102564.34;5116780;28;20098;-73
2022/07/06 09:01:49;;;;;;;2.75;0.50;;;;;;;19.00;64.07;102568.09;5114722;28;20114;-72
2022/07/06 09:04:21;;;;;;;1.17;0.40;;;;;;;19.10;62.77;102569.97;5109726;28;20463;-72
2022/07/06 09:06:47;;;;;;;1.13;0.25;;;;;;;19.18;61.11;102570.03;5116766;28;20020;-72
2022/07/06 09:09:19;;;;;;;4.10;0.75;;;;;;;19.21;61.64;102565.63;5116182;28;20023;-73
2022/07/06 09:11:45;;;;;;;2.17;0.38;;;;;;;19.30;61.38;102572.81;5081023;28;20028;-72
2022/07/06 09:14:10;;;;;;;1.92;0.73;;;;;;;19.36;63.65;102571.97;5112172;28;20038;-72
2022/07/06 09:16:36;;;;;;;0.77;0.22;;;;;;;19.42;63.01;102577.34;5107024;28;20020;-72
2022/07/06 09:19:01;;;;;;;2.20;0.40;;;;;;;19.44;64.23;102570.25;5091205;28;20427;-73
2022/07/06 09:21:32;;;;;;;0.60;0.28;;;;;;;19.54;65.28;102565.84;5095575;28;20076;-72
2022/07/06 09:24:00;;;;;;;3.72;0.95;;;;;;;19.70;69.23;102572.19;5086005;28;20404;-72
2022/07/06 09:26:26;;;;;;;4.22;0.60;;;;;;;19.75;62.61;102574.88;5112265;28;20027;-72
2022/07/06 09:28:54;;;;;;;0.52;0.40;;;;;;;19.86;66.64;102574.09;5108136;28;20046;-73
2022/07/06 09:31:19;;;;;;;3.20;0.50;;;;;;;19.85;58.86;102583.00;5109084;28;20027;-72
2022/07/06 09:34:05;;;;;;;0.93;0.40;;;;;;;19.95;58.10;102583.94;5106286;28;20028;-71
2022/07/06 09:36:40;;;;;;;0.93;0.20;;;;;;;19.82;59.09;102587.44;5080214;28;20016;-72
2022/07/06 09:39:24;;;;;;;0.95;0.30;;;;;;;19.86;60.08;102590.13;5115944;28;20106;-72
2022/07/06 09:41:55;;;;;;;2.03;0.30;;;;;;;19.95;60.36;102588.41;5096594;28;20031;-72
2022/07/06 09:44:23;;;;;;;0.73;0.30;;;;;;;19.95;59.80;102599.09;5106844;28;20024;-72
2022/07/06 09:46:49;;;;;;;0.98;0.47;;;;;;;19.86;58.58;102591.94;5107824;28;20106;-72
2022/07/06 09:49:19;;;;;;;1.80;0.68;;;;;;;19.87;65.03;102602.63;5106291;28;20066;-72
2022/07/06 09:51:46;;;;;;;1.02;0.30;;;;;;;19.90;62.02;102595.50;5099357;28;20050;-72
2022/07/06 09:54:11;;;;;;;2.17;0.40;;;;;;;20.01;64.07;102599.13;5103036;27;20063;-72
2022/07/06 09:56:39;;;;;;;2.70;0.38;;;;;;;20.05;59.47;102590.25;5102814;28;20046;-72
2022/07/06 09:59:15;;;;;;;0.40;0.30;;;;;;;20.19;61.60;102593.84;5116482;27;20028;-72
2022/07/06 10:01:41;;;;;;;5.32;0.55;;;;;;;20.19;58.12;102587.63;5114164;28;20027;-72
2022/07/06 10:04:08;;;;;;;1.83;0.47;;;;;;;20.23;55.39;102593.91;5105588;27;20022;-72
2022/07/06 10:06:35;;;;;;;6.50;0.50;;;;;;;20.15;56.67;102589.38;5093252;27;20069;-73
2022/07/06 10:09:02;;;;;;;3.78;0.80;;;;;;;20.34;57.75;102586.81;5109518;27;20046;-71
2022/07/06 10:11:29;;;;;;;1.63;0.40;;;;;;;20.43;61.58;102596.63;5103270;28;20106;-72
2022/07/06 10:13:57;;;;;;;5.07;0.40;;;;;;;20.39;58.37;102590.38;5097152;28;20068;-73
2022/07/06 10:16:24;;;;;;;1.27;0.52;;;;;;;20.48;60.36;102585.06;5099532;28;20028;-72
2022/07/06 10:18:53;;;;;;;1.35;0.60;;;;;;;20.43;57.04;102588.59;5099903;28;20345;-74
2022/07/06 10:21:19;;;;;;;1.52;0.50;;;;;;;20.41;57.06;102599.28;5107519;28;20032;-73
2022/07/06 10:23:44;;;;;;;2.55;0.30;;;;;;;20.61;57.96;102579.75;5109054;28;20034;-72
2022/07/06 10:26:10;;;;;;;3.28;0.70;;;;;;;20.66;55.33;102583.31;5106029;28;20418;-72
2022/07/06 10:28:37;;;;;;;1.70;0.77;;;;;;;20.55;56.25;102581.53;5108180;28;20034;-72
2022/07/06 10:31:03;;;;;;;1.23;0.50;;;;;;;20.58;56.78;102574.38;5108497;28;20366;-71
2022/07/06 10:33:28;;;;;;;2.65;0.65;;;;;;;20.48;54.88;102574.38;5111845;28;20012;-72
2022/07/06 10:35:55;;;;;;;3.53;0.85;;;;;;;20.60;56.58;102573.50;5105214;28;20095;-73
2022/07/06 10:38:31;;;;;;;3.97;0.98;;;;;;;20.68;54.58;102571.75;5098784;28;20028;-73
2022/07/06 10:41:07;;;;;;;2.80;0.50;;;;;;;20.70;54.64;102563.72;5104566;28;20020;-72
2022/07/06 10:43:38;;;;;;;4.05;0.60;;;;;;;20.92;55.43;102564.69;5084207;28;20042;-72
2022/07/06 10:46:11;;;;;;;3.70;0.70;;;;;;;21.16;53.78;102569.16;5104185;28;20128;-72
2022/07/06 10:48:39;;;;;;;1.63;0.60;;;;;;;21.08;53.34;102565.59;5077853;28;20031;-72
2022/07/06 10:51:05;;;;;;;1.60;0.63;;;;;;;21.36;56.03;102560.22;5091217;28;20408;-74
2022/07/06 10:53:33;;;;;;;2.60;0.77;;;;;;;21.68;52.12;102562.88;5109393;28;20020;-71
2022/07/06 10:56:02;;;;;;;2.40;0.68;;;;;;;21.94;51.04;102558.34;5098758;28;20172;-73
2022/07/06 10:58:52;;;;;;;2.75;0.60;;;;;;;21.65;47.32;102556.59;5114082;28;20132;-72
2022/07/06 11:01:20;;;;;;;2.65;0.70;;;;;;;21.61;48.77;102550.38;5096660;28;20107;-73
2022/07/06 11:03:47;;;;;;;1.17;0.40;;;;;;;21.35;51.31;102542.34;5105948;28;20023;-72
2022/07/06 11:06:16;;;;;;;1.92;0.68;;;;;;;21.32;51.86;102542.34;5111976;28;20479;-73
2022/07/06 11:08:45;;;;;;;2.83;0.50;;;;;;;21.34;49.43;102536.09;5114374;28;20098;-72
2022/07/06 11:11:34;;;;;;;2.90;0.75;;;;;;;21.49;49.28;102539.66;5108206;28;20463;-73
2022/07/06 11:14:03;;;;;;;3.22;0.68;;;;;;;22.02;52.29;102545.78;5089601;28;20059;-73
2022/07/06 11:16:34;;;;;;;6.00;0.70;;;;;;;22.27;52.69;102545.69;5099877;28;20026;-73
2022/07/06 11:19:02;;;;;;;2.92;0.88;;;;;;;22.17;49.37;102529.63;5102264;28;20032;-72
2022/07/06 11:21:44;;;;;;;1.08;0.55;;;;;;;22.15;49.05;102520.72;5084467;28;20114;-73